美保飛行場の過去48時間の天気

美保飛行場 (Miho)

現在時刻: 1/23 13:16 JST (1/23 04:16 UTC) 以下の時間は現地時間です。

過去48時間のMETAR気象情報
時間 風向 風速(m/s) 視程 気温(℃) 湿度(%) 気圧(hPa) 天気現象
23 13:00 西 13 10km以上 4 33 1014
23 12:00 西 14 10km以上 5 38 1013
23 11:00 西 15 10km以上 5 45 1013
23 10:00 西 12 10km以上 7 42 1012
23 09:00 西 11 10km以上 6 42 1011
23 08:00 西 13 10km以上 6 45 1011
23 07:00 西 11 10km以上 6 57 1009
23 06:00 西 11 10km以上 6 70 1009 弱いしゅう雨
23 05:00 南西 5 10km以上 5 81 1008 弱いしゅう雨
23 04:00 南南西 5 10km以上 5 81 1008 弱いしゅう雨
23 03:00 南南西 5 7,000m 5 81 1008 弱い雷雨
23 02:00 南南西 5 10km以上 5 81 1009 弱い雷雨
23 01:00 南西 10 7,000m 5 81 1010 弱いしゅう雨
23 00:00 3 10km以上 2 87 1010 弱いしゅう雨
22 23:00 3 10km以上 2 81 1010
22 22:00 3 10km以上 2 81 1011
22 21:00 南西 3 10km以上 3 87 1012 弱いしゅう雨
22 20:00 西南西 3 10km以上 3 87 1012
22 19:00 南南西 2 10km以上 2 87 1012
22 18:00 西 3 10km以上 3 87 1012
22 17:00 南西 3 10km以上 3 87 1012
22 16:00 南西 3 10km以上 3 87 1012
22 15:00 西南西 3 7,000m 3 81 1012 弱い雨
22 14:00 西 2 7,000m 3 81 1012 弱い雨
22 13:00 南西 3 10km以上 3 81 1013 弱い雨
22 12:00 南南西 4 8,000m 3 81 1014 弱い雨
22 11:00 4 10km以上 4 75 1016 弱い雨
22 10:00 3 10km以上 4 75 1017 弱い雨
22 09:00 西南西 2 10km以上 4 75 1017
22 08:00 2 10km以上 3 81 1017
22 07:00 不定 1 10km以上 3 81 1016
22 06:00 2 10km以上 3 81 1017
22 05:00 南南西 2 10km以上 3 81 1018
RJOH 230400Z 27025G40KT 9999 FEW025 SCT030 BKN120 04/M11 Q1014
RJOH 230300Z 28027G44KT 9999 FEW025 BKN030 BKN120 05/M08 Q1013
RJOH 230200Z 27029G39KT 9999 FEW025 BKN035 BKN050 05/M06 Q1013
RJOH 230100Z 27024G36KT 9999 FEW025 BKN035 BKN050 07/M05 Q1012
RJOH 230000Z 27022G32KT 9999 FEW020 SCT030 BKN050 06/M06 Q1011
RJOH 222300Z 27025KT 9999 FEW030 SCT050 06/M05 Q1011
RJOH 222200Z 26021G31KT 9999 FEW030 SCT045 06/M02 Q1009
RJOH 222100Z 27021KT 9999 -SHRA FEW020 BKN030 BKN050 06/01 Q1009
RJOH 222000Z 23010KT 9999 -SHRA FEW015 BKN025 BKN050 05/02 Q1008
RJOH 221900Z 21010KT 9999 -SHRA FEW015 BKN025 BKN050 05/02 Q1008 RETS
RJOH 221800Z 21009KT 7000 -TSRA FEW015 BKN025 SCT025CB BKN050 05/02 Q1008
RJOH 221700Z 20009KT 9999 -TSRA FEW015 BKN025 FEW025CB BKN050 05/02 Q1009
RJOH 221600Z 23019KT 7000 -SHRA FEW015 BKN025 SCT025TCU BKN050 05/02 Q1010
RJOH 221500Z 19006KT 9999 -SHRA FEW020 BKN030 BKN050 02/00 Q1010
RJOH 221400Z 19005KT 9999 FEW020 SCT030 BKN050 02/M01 Q1010
RJOH 221300Z 19005KT 9999 FEW030 SCT050 02/M01 Q1011
RJOH 221200Z 22006KT 9999 -SHRA FEW025 SCT030 BKN050 03/01 Q1012
RJOH 221100Z 24005KT 9999 FEW030 BKN050 03/01 Q1012
RJOH 221000Z 20004KT 9999 FEW005 SCT060 02/M00 Q1012
RJOH 220900Z 26005KT 9999 FEW004 SCT005 03/01 Q1012
RJOH 220800Z 23006KT 9999 FEW004 SCT005 BKN045 03/01 Q1012
RJOH 220700Z 22006KT 9999 FEW004 BKN005 BKN100 03/01 Q1012
RJOH 220600Z 25006KT 210V270 7000 -RA FEW004 BKN006 BKN015 03/00 Q1012
RJOH 220500Z 27004KT 7000 -RA FEW004 SCT005 BKN007 03/00 Q1012
RJOH 220400Z 22005KT 9999 -RA FEW006 BKN008 OVC015 03/00 Q1013
RJOH 220300Z 21007KT 8000 -RA FEW007 SCT009 OVC015 03/00 Q1014
RJOH 220200Z 19008KT 9999 -RA FEW015 BKN020 OVC030 04/00 Q1016
RJOH 220100Z 18006KT 9999 -RA FEW020 BKN030 OVC050 04/00 Q1017
RJOH 220000Z 24003KT 9999 FEW020 SCT030 BKN050 04/M00 Q1017
RJOH 212300Z 19004KT 9999 FEW005 BKN080 OVC120 03/M00 Q1017
RJOH 212200Z VRB02KT 9999 FEW005 BKN080 BKN120 03/00 Q1016
RJOH 212100Z 36004KT 330V060 9999 FEW050 BKN080 BKN120 03/00 Q1017
RJOH 212000Z 20004KT 9999 FEW050 SCT080 BKN120 03/00 Q1018